sensor_id;sensor_type;location;lat;lon;timestamp;pressure;altitude;pressure_sealevel;temperature;humidity
21824;BME280;11074;48.596;9.238;2023-04-16T00:02:18;98128.13;;;9.82;92.18
21824;BME280;11074;48.596;9.238;2023-04-16T00:04:44;98132.25;;;9.72;92.99
21824;BME280;11074;48.596;9.238;2023-04-16T00:07:10;98127.53;;;9.80;92.93
21824;BME280;11074;48.596;9.238;2023-04-16T00:09:36;98122.19;;;9.80;92.81
21824;BME280;11074;48.596;9.238;2023-04-16T00:12:02;98131.56;;;9.82;92.78
21824;BME280;11074;48.596;9.238;2023-04-16T00:14:29;98128.72;;;9.89;92.43
21824;BME280;11074;48.596;9.238;2023-04-16T00:16:54;98129.28;;;9.91;93.27
21824;BME280;11074;48.596;9.238;2023-04-16T00:19:20;98129.56;;;9.89;91.61
21824;BME280;11074;48.596;9.238;2023-04-16T00:21:46;98130.59;;;9.88;92.00
21824;BME280;11074;48.596;9.238;2023-04-16T00:24:12;98137.31;;;9.91;92.50
21824;BME280;11074;48.596;9.238;2023-04-16T00:26:37;98128.25;;;9.92;91.81
21824;BME280;11074;48.596;9.238;2023-04-16T00:29:03;98131.47;;;9.94;91.92
21824;BME280;11074;48.596;9.238;2023-04-16T00:31:32;98134.06;;;9.89;92.16
21824;BME280;11074;48.596;9.238;2023-04-16T00:33:58;98132.16;;;9.84;92.10
21824;BME280;11074;48.596;9.238;2023-04-16T00:36:25;98139.09;;;9.85;91.86
21824;BME280;11074;48.596;9.238;2023-04-16T00:38:52;98136.44;;;9.85;92.72
21824;BME280;11074;48.596;9.238;2023-04-16T00:41:18;98139.09;;;9.85;92.09
21824;BME280;11074;48.596;9.238;2023-04-16T00:43:44;98135.38;;;9.86;92.31
21824;BME280;11074;48.596;9.238;2023-04-16T00:46:11;98140.16;;;9.84;92.17
21824;BME280;11074;48.596;9.238;2023-04-16T00:48:38;98141.69;;;9.80;92.87
21824;BME280;11074;48.596;9.238;2023-04-16T00:51:07;98133.94;;;9.79;93.38
21824;BME280;11074;48.596;9.238;2023-04-16T00:53:34;98144.09;;;9.77;93.05
21824;BME280;11074;48.596;9.238;2023-04-16T00:56:05;98141.16;;;9.78;93.31
21824;BME280;11074;48.596;9.238;2023-04-16T00:58:34;98143.00;;;9.77;93.16
21824;BME280;11074;48.596;9.238;2023-04-16T01:01:00;98145.66;;;9.77;93.10
21824;BME280;11074;48.596;9.238;2023-04-16T01:03:37;98138.53;;;9.83;93.12
21824;BME280;11074;48.596;9.238;2023-04-16T01:06:05;98137.19;;;9.81;92.53
21824;BME280;11074;48.596;9.238;2023-04-16T01:08:32;98134.50;;;9.81;93.32
21824;BME280;11074;48.596;9.238;2023-04-16T01:10:57;98141.22;;;9.83;93.13
21824;BME280;11074;48.596;9.238;2023-04-16T01:13:23;98140.41;;;9.83;92.70
21824;BME280;11074;48.596;9.238;2023-04-16T01:15:49;98137.66;;;9.77;93.23
21824;BME280;11074;48.596;9.238;2023-04-16T01:18:17;98140.53;;;9.71;93.14
21824;BME280;11074;48.596;9.238;2023-04-16T01:20:43;98148.22;;;9.67;93.61
21824;BME280;11074;48.596;9.238;2023-04-16T01:23:09;98148.53;;;9.71;92.77
21824;BME280;11074;48.596;9.238;2023-04-16T01:25:36;98154.75;;;9.77;92.72
21824;BME280;11074;48.596;9.238;2023-04-16T01:28:02;98146.50;;;9.78;93.30
21824;BME280;11074;48.596;9.238;2023-04-16T01:30:28;98157.72;;;9.80;92.90
21824;BME280;11074;48.596;9.238;2023-04-16T01:32:53;98157.44;;;9.77;93.18
21824;BME280;11074;48.596;9.238;2023-04-16T01:35:19;98160.88;;;9.77;92.93
21824;BME280;11074;48.596;9.238;2023-04-16T01:37:45;98151.00;;;9.77;92.44
21824;BME280;11074;48.596;9.238;2023-04-16T01:40:11;98157.97;;;9.79;92.13
21824;BME280;11074;48.596;9.238;2023-04-16T01:42:37;98152.88;;;9.77;93.10
21824;BME280;11074;48.596;9.238;2023-04-16T01:45:04;98161.63;;;9.72;93.31
21824;BME280;11074;48.596;9.238;2023-04-16T01:47:30;98151.50;;;9.74;93.51
21824;BME280;11074;48.596;9.238;2023-04-16T01:49:56;98156.13;;;9.79;92.85
21824;BME280;11074;48.596;9.238;2023-04-16T01:52:22;98155.97;;;9.69;93.36
21824;BME280;11074;48.596;9.238;2023-04-16T01:54:47;98157.25;;;9.66;93.45
21824;BME280;11074;48.596;9.238;2023-04-16T01:57:13;98160.19;;;9.65;93.08
21824;BME280;11074;48.596;9.238;2023-04-16T01:59:38;98163.91;;;9.64;94.65
21824;BME280;11074;48.596;9.238;2023-04-16T02:02:10;98152.81;;;9.72;93.24
21824;BME280;11074;48.596;9.238;2023-04-16T02:04:41;98166.16;;;9.72;93.25
21824;BME280;11074;48.596;9.238;2023-04-16T02:07:09;98156.97;;;9.63;94.57
21824;BME280;11074;48.596;9.238;2023-04-16T02:09:37;98158.63;;;9.69;94.51
21824;BME280;11074;48.596;9.238;2023-04-16T02:12:04;98154.91;;;9.70;94.61
21824;BME280;11074;48.596;9.238;2023-04-16T02:14:31;98151.63;;;9.63;94.47
21824;BME280;11074;48.596;9.238;2023-04-16T02:16:57;98155.91;;;9.64;93.98
21824;BME280;11074;48.596;9.238;2023-04-16T02:19:23;98155.34;;;9.62;94.27
21824;BME280;11074;48.596;9.238;2023-04-16T02:21:52;98151.38;;;9.64;93.77
21824;BME280;11074;48.596;9.238;2023-04-16T02:24:19;98160.75;;;9.67;93.25
21824;BME280;11074;48.596;9.238;2023-04-16T02:26:45;98158.06;;;9.67;92.58
21824;BME280;11074;48.596;9.238;2023-04-16T02:29:11;98156.38;;;9.61;94.14
21824;BME280;11074;48.596;9.238;2023-04-16T02:31:37;98162.31;;;9.63;94.46
21824;BME280;11074;48.596;9.238;2023-04-16T02:34:03;98161.72;;;9.61;93.31
21824;BME280;11074;48.596;9.238;2023-04-16T02:36:29;98162.88;;;9.65;93.77
21824;BME280;11074;48.596;9.238;2023-04-16T02:38:57;98160.50;;;9.68;93.94
21824;BME280;11074;48.596;9.238;2023-04-16T02:41:23;98160.81;;;9.72;94.30
21824;BME280;11074;48.596;9.238;2023-04-16T02:43:49;98166.72;;;9.74;93.78
21824;BME280;11074;48.596;9.238;2023-04-16T02:46:14;98164.34;;;9.77;92.96
21824;BME280;11074;48.596;9.238;2023-04-16T02:48:41;98169.22;;;9.81;93.24
21824;BME280;11074;48.596;9.238;2023-04-16T02:51:06;98164.91;;;9.80;93.47
21824;BME280;11074;48.596;9.238;2023-04-16T02:53:32;98168.09;;;9.77;93.56
21824;BME280;11074;48.596;9.238;2023-04-16T02:55:58;98169.38;;;9.74;94.14
21824;BME280;11074;48.596;9.238;2023-04-16T02:58:25;98172.03;;;9.74;93.80
21824;BME280;11074;48.596;9.238;2023-04-16T03:00:53;98164.63;;;9.76;92.84
21824;BME280;11074;48.596;9.238;2023-04-16T03:03:19;98170.78;;;9.77;93.67
21824;BME280;11074;48.596;9.238;2023-04-16T03:05:45;98168.59;;;9.73;94.29
21824;BME280;11074;48.596;9.238;2023-04-16T03:08:11;98169.09;;;9.70;93.88
21824;BME280;11074;48.596;9.238;2023-04-16T03:10:37;98165.53;;;9.65;93.84
21824;BME280;11074;48.596;9.238;2023-04-16T03:13:03;98172.66;;;9.59;94.40
21824;BME280;11074;48.596;9.238;2023-04-16T03:15:29;98164.25;;;9.51;94.32
21824;BME280;11074;48.596;9.238;2023-04-16T03:17:55;98161.84;;;9.49;94.35
21824;BME280;11074;48.596;9.238;2023-04-16T03:20:21;98170.16;;;9.53;94.38
21824;BME280;11074;48.596;9.238;2023-04-16T03:22:47;98158.28;;;9.44;94.91
21824;BME280;11074;48.596;9.238;2023-04-16T03:25:13;98171.84;;;9.42;94.83
21824;BME280;11074;48.596;9.238;2023-04-16T03:27:39;98174.28;;;9.44;95.60
21824;BME280;11074;48.596;9.238;2023-04-16T03:30:06;98180.44;;;9.44;95.38
21824;BME280;11074;48.596;9.238;2023-04-16T03:32:33;98175.91;;;9.45;95.96
21824;BME280;11074;48.596;9.238;2023-04-16T03:34:58;98179.97;;;9.47;94.86
21824;BME280;11074;48.596;9.238;2023-04-16T03:37:24;98177.53;;;9.46;95.14
21824;BME280;11074;48.596;9.238;2023-04-16T03:39:50;98178.81;;;9.43;94.67
21824;BME280;11074;48.596;9.238;2023-04-16T03:42:15;98170.88;;;9.48;95.65
21824;BME280;11074;48.596;9.238;2023-04-16T03:44:41;98177.78;;;9.44;95.94
21824;BME280;11074;48.596;9.238;2023-04-16T03:47:07;98177.84;;;9.49;95.86
21824;BME280;11074;48.596;9.238;2023-04-16T03:49:32;98184.00;;;9.50;95.30
21824;BME280;11074;48.596;9.238;2023-04-16T03:51:58;98180.03;;;9.52;94.22
21824;BME280;11074;48.596;9.238;2023-04-16T03:54:24;98178.16;;;9.53;94.42
21824;BME280;11074;48.596;9.238;2023-04-16T03:56:49;98187.31;;;9.57;93.78
21824;BME280;11074;48.596;9.238;2023-04-16T03:59:17;98195.31;;;9.57;94.12
21824;BME280;11074;48.596;9.238;2023-04-16T04:01:42;98185.44;;;9.57;94.09
21824;BME280;11074;48.596;9.238;2023-04-16T04:04:08;98180.34;;;9.56;93.86
21824;BME280;11074;48.596;9.238;2023-04-16T04:06:35;98187.53;;;9.55;94.66
21824;BME280;11074;48.596;9.238;2023-04-16T04:09:01;98192.56;;;9.52;94.71
21824;BME280;11074;48.596;9.238;2023-04-16T04:11:26;98190.13;;;9.50;95.07
21824;BME280;11074;48.596;9.238;2023-04-16T04:13:52;98182.94;;;9.51;95.17
21824;BME280;11074;48.596;9.238;2023-04-16T04:16:18;98188.25;;;9.51;94.34
21824;BME280;11074;48.596;9.238;2023-04-16T04:18:44;98186.91;;;9.48;95.03
21824;BME280;11074;48.596;9.238;2023-04-16T04:21:10;98192.78;;;9.50;94.57
21824;BME280;11074;48.596;9.238;2023-04-16T04:23:36;98191.50;;;9.53;94.70
21824;BME280;11074;48.596;9.238;2023-04-16T04:26:02;98200.88;;;9.55;94.85
21824;BME280;11074;48.596;9.238;2023-04-16T04:28:31;98198.78;;;9.57;95.54
21824;BME280;11074;48.596;9.238;2023-04-16T04:30:58;98207.59;;;9.58;95.31
21824;BME280;11074;48.596;9.238;2023-04-16T04:33:27;98207.34;;;9.59;94.58
21824;BME280;11074;48.596;9.238;2023-04-16T04:35:54;98202.56;;;9.61;94.08
21824;BME280;11074;48.596;9.238;2023-04-16T04:38:21;98206.22;;;9.55;93.57
21824;BME280;11074;48.596;9.238;2023-04-16T04:40:50;98209.78;;;9.44;95.27
21824;BME280;11074;48.596;9.238;2023-04-16T04:43:20;98212.22;;;9.46;95.29
21824;BME280;11074;48.596;9.238;2023-04-16T04:45:46;98210.91;;;9.48;94.51
21824;BME280;11074;48.596;9.238;2023-04-16T04:48:14;98217.63;;;9.51;94.42
21824;BME280;11074;48.596;9.238;2023-04-16T04:50:41;98219.53;;;9.55;94.23
21824;BME280;11074;48.596;9.238;2023-04-16T04:53:07;98222.81;;;9.57;93.87
21824;BME280;11074;48.596;9.238;2023-04-16T04:55:37;98225.22;;;9.59;94.61
21824;BME280;11074;48.596;9.238;2023-04-16T04:58:07;98223.84;;;9.56;94.21
21824;BME280;11074;48.596;9.238;2023-04-16T05:00:33;98225.47;;;9.57;95.16
21824;BME280;11074;48.596;9.238;2023-04-16T05:03:09;98228.16;;;9.57;94.24
21824;BME280;11074;48.596;9.238;2023-04-16T05:05:35;98235.88;;;9.59;93.31
21824;BME280;11074;48.596;9.238;2023-04-16T05:08:01;98238.22;;;9.55;94.28
21824;BME280;11074;48.596;9.238;2023-04-16T05:10:27;98239.94;;;9.61;93.61
21824;BME280;11074;48.596;9.238;2023-04-16T05:12:52;98243.91;;;9.59;94.37
21824;BME280;11074;48.596;9.238;2023-04-16T05:15:18;98238.34;;;9.60;94.23
21824;BME280;11074;48.596;9.238;2023-04-16T05:17:44;98247.38;;;9.59;94.73
21824;BME280;11074;48.596;9.238;2023-04-16T05:20:10;98252.66;;;9.54;94.19
21824;BME280;11074;48.596;9.238;2023-04-16T05:22:35;98244.88;;;9.53;94.39
21824;BME280;11074;48.596;9.238;2023-04-16T05:25:02;98257.50;;;9.57;93.65
21824;BME280;11074;48.596;9.238;2023-04-16T05:27:27;98254.81;;;9.57;93.96
21824;BME280;11074;48.596;9.238;2023-04-16T05:29:53;98251.34;;;9.57;93.96
21824;BME280;11074;48.596;9.238;2023-04-16T05:32:19;98251.56;;;9.55;94.32
21824;BME280;11074;48.596;9.238;2023-04-16T05:34:44;98262.44;;;9.49;94.61
21824;BME280;11074;48.596;9.238;2023-04-16T05:37:10;98257.91;;;9.49;94.99
21824;BME280;11074;48.596;9.238;2023-04-16T05:39:36;98259.03;;;9.53;94.58
21824;BME280;11074;48.596;9.238;2023-04-16T05:42:01;98265.09;;;9.49;94.30
21824;BME280;11074;48.596;9.238;2023-04-16T05:44:27;98263.53;;;9.53;94.51
21824;BME280;11074;48.596;9.238;2023-04-16T05:46:53;98275.03;;;9.53;94.64
21824;BME280;11074;48.596;9.238;2023-04-16T05:49:19;98274.56;;;9.56;95.08
21824;BME280;11074;48.596;9.238;2023-04-16T05:51:45;98272.91;;;9.55;95.04
21824;BME280;11074;48.596;9.238;2023-04-16T05:54:11;98277.41;;;9.50;95.55
21824;BME280;11074;48.596;9.238;2023-04-16T05:56:37;98280.69;;;9.57;95.05
21824;BME280;11074;48.596;9.238;2023-04-16T05:59:02;98289.03;;;9.60;94.96
21824;BME280;11074;48.596;9.238;2023-04-16T06:01:28;98293.78;;;9.58;94.98
21824;BME280;11074;48.596;9.238;2023-04-16T06:03:54;98284.75;;;9.59;95.03
21824;BME280;11074;48.596;9.238;2023-04-16T06:06:19;98288.53;;;9.63;95.24
21824;BME280;11074;48.596;9.238;2023-04-16T06:08:45;98290.16;;;9.64;94.53
21824;BME280;11074;48.596;9.238;2023-04-16T06:11:11;98295.41;;;9.59;95.38
21824;BME280;11074;48.596;9.238;2023-04-16T06:13:38;98301.25;;;9.56;95.52
21824;BME280;11074;48.596;9.238;2023-04-16T06:16:04;98296.72;;;9.57;94.34
21824;BME280;11074;48.596;9.238;2023-04-16T06:18:30;98298.56;;;9.56;95.07
21824;BME280;11074;48.596;9.238;2023-04-16T06:20:55;98296.47;;;9.58;94.59
21824;BME280;11074;48.596;9.238;2023-04-16T06:23:23;98305.75;;;9.56;95.75
21824;BME280;11074;48.596;9.238;2023-04-16T06:25:49;98305.75;;;9.56;96.17
21824;BME280;11074;48.596;9.238;2023-04-16T06:28:14;98311.09;;;9.56;95.81
21824;BME280;11074;48.596;9.238;2023-04-16T06:30:40;98307.31;;;9.52;96.25
21824;BME280;11074;48.596;9.238;2023-04-16T06:33:06;98313.47;;;9.52;95.99
21824;BME280;11074;48.596;9.238;2023-04-16T06:35:32;98313.53;;;9.57;95.26
21824;BME280;11074;48.596;9.238;2023-04-16T06:37:57;98321.63;;;9.62;95.69
21824;BME280;11074;48.596;9.238;2023-04-16T06:40:23;98307.56;;;9.67;95.11
21824;BME280;11074;48.596;9.238;2023-04-16T06:42:49;98310.13;;;9.62;95.69
21824;BME280;11074;48.596;9.238;2023-04-16T06:45:14;98313.38;;;9.64;94.39
21824;BME280;11074;48.596;9.238;2023-04-16T06:47:40;98324.22;;;9.57;95.97
21824;BME280;11074;48.596;9.238;2023-04-16T06:50:06;98312.94;;;9.55;95.53
21824;BME280;11074;48.596;9.238;2023-04-16T06:52:32;98319.44;;;9.59;95.35
21824;BME280;11074;48.596;9.238;2023-04-16T06:54:58;98320.25;;;9.60;95.62
21824;BME280;11074;48.596;9.238;2023-04-16T06:57:23;98324.03;;;9.64;95.13
21824;BME280;11074;48.596;9.238;2023-04-16T06:59:49;98322.75;;;9.66;94.83
21824;BME280;11074;48.596;9.238;2023-04-16T07:02:15;98324.94;;;9.69;95.04
21824;BME280;11074;48.596;9.238;2023-04-16T07:04:40;98325.59;;;9.60;95.52
21824;BME280;11074;48.596;9.238;2023-04-16T07:07:07;98329.31;;;9.59;96.27
21824;BME280;11074;48.596;9.238;2023-04-16T07:09:33;98333.03;;;9.58;96.23
21824;BME280;11074;48.596;9.238;2023-04-16T07:11:58;98328.97;;;9.55;95.46
21824;BME280;11074;48.596;9.238;2023-04-16T07:14:24;98332.78;;;9.59;95.10
21824;BME280;11074;48.596;9.238;2023-04-16T07:16:50;98331.63;;;9.55;96.08
21824;BME280;11074;48.596;9.238;2023-04-16T07:19:15;98333.69;;;9.65;94.74
21824;BME280;11074;48.596;9.238;2023-04-16T07:21:41;98331.22;;;9.63;95.50
21824;BME280;11074;48.596;9.238;2023-04-16T07:24:09;98332.31;;;9.62;95.58
21824;BME280;11074;48.596;9.238;2023-04-16T07:26:36;98339.59;;;9.67;95.68
21824;BME280;11074;48.596;9.238;2023-04-16T07:29:02;98342.59;;;9.70;94.21
21824;BME280;11074;48.596;9.238;2023-04-16T07:31:27;98338.63;;;9.73;94.42
21824;BME280;11074;48.596;9.238;2023-04-16T07:33:53;98345.81;;;9.72;94.98
21824;BME280;11074;48.596;9.238;2023-04-16T07:36:19;98344.34;;;9.65;95.35
21824;BME280;11074;48.596;9.238;2023-04-16T07:38:45;98349.44;;;9.66;96.00
21824;BME280;11074;48.596;9.238;2023-04-16T07:41:12;98347.25;;;9.63;96.08
21824;BME280;11074;48.596;9.238;2023-04-16T07:43:38;98355.13;;;9.70;95.45
21824;BME280;11074;48.596;9.238;2023-04-16T07:46:03;98351.63;;;9.69;94.61
21824;BME280;11074;48.596;9.238;2023-04-16T07:48:29;98356.16;;;9.69;94.94
21824;BME280;11074;48.596;9.238;2023-04-16T07:50:55;98361.75;;;9.67;95.41
21824;BME280;11074;48.596;9.238;2023-04-16T07:53:20;98356.41;;;9.67;96.30
21824;BME280;11074;48.596;9.238;2023-04-16T07:55:46;98356.16;;;9.69;96.03
21824;BME280;11074;48.596;9.238;2023-04-16T07:58:12;98361.28;;;9.70;95.01
21824;BME280;11074;48.596;9.238;2023-04-16T08:00:38;98363.47;;;9.73;95.94
21824;BME280;11074;48.596;9.238;2023-04-16T08:03:04;98367.25;;;9.77;94.39
21824;BME280;11074;48.596;9.238;2023-04-16T08:05:29;98362.38;;;9.74;95.72
21824;BME280;11074;48.596;9.238;2023-04-16T08:07:55;98373.97;;;9.80;95.41
21824;BME280;11074;48.596;9.238;2023-04-16T08:10:21;98372.94;;;9.81;95.89
21824;BME280;11074;48.596;9.238;2023-04-16T08:12:46;98375.69;;;9.86;95.47
21824;BME280;11074;48.596;9.238;2023-04-16T08:15:12;98378.56;;;9.85;95.94
21824;BME280;11074;48.596;9.238;2023-04-16T08:17:38;98382.72;;;9.92;94.46
21824;BME280;11074;48.596;9.238;2023-04-16T08:20:04;98385.47;;;9.97;96.06
21824;BME280;11074;48.596;9.238;2023-04-16T08:22:32;98392.19;;;10.00;95.96
21824;BME280;11074;48.596;9.238;2023-04-16T08:24:58;98385.78;;;10.01;94.44
21824;BME280;11074;48.596;9.238;2023-04-16T08:27:23;98390.56;;;9.99;95.04
21824;BME280;11074;48.596;9.238;2023-04-16T08:29:49;98394.06;;;9.99;93.65
21824;BME280;11074;48.596;9.238;2023-04-16T08:32:15;98398.34;;;10.00;93.52
21824;BME280;11074;48.596;9.238;2023-04-16T08:34:41;98405.94;;;9.92;94.79
21824;BME280;11074;48.596;9.238;2023-04-16T08:37:06;98405.69;;;9.93;94.09
21824;BME280;11074;48.596;9.238;2023-04-16T08:39:32;98411.50;;;9.90;94.44
21824;BME280;11074;48.596;9.238;2023-04-16T08:42:01;98407.56;;;9.93;93.96
21824;BME280;11074;48.596;9.238;2023-04-16T08:44:36;98417.09;;;9.89;94.32
21824;BME280;11074;48.596;9.238;2023-04-16T08:47:08;98419.78;;;9.89;94.80
21824;BME280;11074;48.596;9.238;2023-04-16T08:49:43;98410.47;;;9.91;94.38
21824;BME280;11074;48.596;9.238;2023-04-16T08:52:18;98415.47;;;9.88;94.93
21824;BME280;11074;48.596;9.238;2023-04-16T08:55:11;98418.47;;;9.91;94.29
21824;BME280;11074;48.596;9.238;2023-04-16T08:58:03;98424.97;;;9.95;94.78
21824;BME280;11074;48.596;9.238;2023-04-16T09:00:31;98421.88;;;9.87;93.18
21824;BME280;11074;48.596;9.238;2023-04-16T09:02:58;98429.41;;;9.90;94.13
21824;BME280;11074;48.596;9.238;2023-04-16T09:05:26;98428.03;;;9.87;94.03
21824;BME280;11074;48.596;9.238;2023-04-16T09:07:52;98427.06;;;9.77;95.14
21824;BME280;11074;48.596;9.238;2023-04-16T09:10:21;98429.81;;;9.82;94.38
21824;BME280;11074;48.596;9.238;2023-04-16T09:12:46;98431.19;;;9.84;94.88
21824;BME280;11074;48.596;9.238;2023-04-16T09:15:13;98437.00;;;9.81;94.85
21824;BME280;11074;48.596;9.238;2023-04-16T09:17:39;98431.56;;;9.76;94.45
21824;BME280;11074;48.596;9.238;2023-04-16T09:20:07;98447.25;;;9.72;95.14
21824;BME280;11074;48.596;9.238;2023-04-16T09:22:34;98443.28;;;9.75;95.29
21824;BME280;11074;48.596;9.238;2023-04-16T09:25:00;98447.44;;;9.83;94.37
21824;BME280;11074;48.596;9.238;2023-04-16T09:27:26;98452.22;;;9.81;95.07
21824;BME280;11074;48.596;9.238;2023-04-16T09:29:52;98441.88;;;9.84;94.61
21824;BME280;11074;48.596;9.238;2023-04-16T09:32:43;98449.00;;;9.95;94.66
21824;BME280;11074;48.596;9.238;2023-04-16T09:35:09;98445.34;;;10.01;93.90
21824;BME280;11074;48.596;9.238;2023-04-16T09:37:35;98444.75;;;10.11;93.98
21824;BME280;11074;48.596;9.238;2023-04-16T09:40:03;98444.38;;;10.19;93.82
21824;BME280;11074;48.596;9.238;2023-04-16T09:42:35;98448.09;;;10.34;94.34
21824;BME280;11074;48.596;9.238;2023-04-16T09:45:02;98446.47;;;10.50;94.05
21824;BME280;11074;48.596;9.238;2023-04-16T09:47:42;98440.22;;;10.61;93.80
21824;BME280;11074;48.596;9.238;2023-04-16T09:50:15;98446.75;;;10.70;92.05
21824;BME280;11074;48.596;9.238;2023-04-16T09:52:44;98441.56;;;10.80;92.89
21824;BME280;11074;48.596;9.238;2023-04-16T09:55:12;98448.66;;;10.91;92.30
21824;BME280;11074;48.596;9.238;2023-04-16T09:57:38;98456.13;;;10.89;91.09
21824;BME280;11074;48.596;9.238;2023-04-16T10:00:08;98460.97;;;10.92;90.88
21824;BME280;11074;48.596;9.238;2023-04-16T10:02:35;98462.59;;;10.93;91.18
21824;BME280;11074;48.596;9.238;2023-04-16T10:05:05;98460.16;;;10.92;90.25
21824;BME280;11074;48.596;9.238;2023-04-16T10:07:36;98463.50;;;10.82;90.15
21824;BME280;11074;48.596;9.238;2023-04-16T10:10:03;98463.44;;;10.77;90.20
21824;BME280;11074;48.596;9.238;2023-04-16T10:12:29;98467.16;;;10.76;90.24
21824;BME280;11074;48.596;9.238;2023-04-16T10:14:57;98467.03;;;10.66;90.60
21824;BME280;11074;48.596;9.238;2023-04-16T10:17:25;98467.25;;;10.65;91.49
21824;BME280;11074;48.596;9.238;2023-04-16T10:19:54;98466.88;;;10.56;92.92
21824;BME280;11074;48.596;9.238;2023-04-16T10:22:21;98468.31;;;10.64;92.85
21824;BME280;11074;48.596;9.238;2023-04-16T10:24:48;98475.44;;;10.75;91.93
21824;BME280;11074;48.596;9.238;2023-04-16T10:27:15;98472.38;;;10.66;91.70
21824;BME280;11074;48.596;9.238;2023-04-16T10:29:42;98475.59;;;10.68;92.02
21824;BME280;11074;48.596;9.238;2023-04-16T10:32:08;98482.91;;;10.56;91.45
21824;BME280;11074;48.596;9.238;2023-04-16T10:34:35;98478.06;;;10.53;91.38
21824;BME280;11074;48.596;9.238;2023-04-16T10:37:01;98482.31;;;10.54;90.70
21824;BME280;11074;48.596;9.238;2023-04-16T10:39:27;98478.94;;;10.59;90.15
21824;BME280;11074;48.596;9.238;2023-04-16T10:42:11;98482.59;;;10.53;91.69
21824;BME280;11074;48.596;9.238;2023-04-16T10:44:39;98475.69;;;10.57;91.29
21824;BME280;11074;48.596;9.238;2023-04-16T10:47:12;98479.50;;;10.61;91.67
21824;BME280;11074;48.596;9.238;2023-04-16T10:49:40;98478.19;;;10.63;91.23
21824;BME280;11074;48.596;9.238;2023-04-16T10:52:11;98479.41;;;10.72;90.74
21824;BME280;11074;48.596;9.238;2023-04-16T10:54:39;98469.28;;;10.74;90.53
21824;BME280;11074;48.596;9.238;2023-04-16T10:57:14;98473.56;;;10.75;90.15
21824;BME280;11074;48.596;9.238;2023-04-16T10:59:42;98478.69;;;10.77;90.20
21824;BME280;11074;48.596;9.238;2023-04-16T11:02:13;98475.66;;;10.73;89.85
21824;BME280;11074;48.596;9.238;2023-04-16T11:04:43;98471.56;;;10.66;91.68
21824;BME280;11074;48.596;9.238;2023-04-16T11:07:20;98486.78;;;10.65;90.56
21824;BME280;11074;48.596;9.238;2023-04-16T11:09:52;98482.31;;;10.71;91.22
21824;BME280;11074;48.596;9.238;2023-04-16T11:15:15;98492.88;;;10.77;90.47
21824;BME280;11074;48.596;9.238;2023-04-16T11:17:49;98482.25;;;10.66;90.97
21824;BME280;11074;48.596;9.238;2023-04-16T11:20:27;98484.78;;;10.56;90.12
21824;BME280;11074;48.596;9.238;2023-04-16T11:22:55;98489.03;;;10.57;90.63
21824;BME280;11074;48.596;9.238;2023-04-16T11:25:27;98491.00;;;10.61;91.53
21824;BME280;11074;48.596;9.238;2023-04-16T11:27:56;98486.47;;;10.62;90.89
21824;BME280;11074;48.596;9.238;2023-04-16T11:30:38;98487.66;;;10.71;90.39
21824;BME280;11074;48.596;9.238;2023-04-16T11:33:09;98492.69;;;10.67;90.32
21824;BME280;11074;48.596;9.238;2023-04-16T11:35:37;98487.19;;;10.57;90.59
21824;BME280;11074;48.596;9.238;2023-04-16T11:38:06;98492.31;;;10.59;90.39
21824;BME280;11074;48.596;9.238;2023-04-16T11:40:32;98489.59;;;10.75;90.75
21824;BME280;11074;48.596;9.238;2023-04-16T11:43:11;98487.81;;;10.81;90.48
21824;BME280;11074;48.596;9.238;2023-04-16T11:45:37;98497.13;;;10.78;90.28
21824;BME280;11074;48.596;9.238;2023-04-16T11:48:03;98495.28;;;10.79;90.67
21824;BME280;11074;48.596;9.238;2023-04-16T11:50:29;98494.88;;;10.87;89.83
21824;BME280;11074;48.596;9.238;2023-04-16T11:52:56;98492.25;;;10.92;90.37
21824;BME280;11074;48.596;9.238;2023-04-16T11:55:27;98493.63;;;10.94;89.77
21824;BME280;11074;48.596;9.238;2023-04-16T11:57:53;98501.44;;;10.79;90.99
21824;BME280;11074;48.596;9.238;2023-04-16T12:00:19;98491.31;;;10.81;91.17
21824;BME280;11074;48.596;9.238;2023-04-16T12:02:50;98497.06;;;10.90;90.03
21824;BME280;11074;48.596;9.238;2023-04-16T12:05:36;98493.06;;;10.92;89.75
21824;BME280;11074;48.596;9.238;2023-04-16T12:08:06;98497.88;;;10.90;89.80
21824;BME280;11074;48.596;9.238;2023-04-16T12:10:35;98490.41;;;10.92;91.28
21824;BME280;11074;48.596;9.238;2023-04-16T12:13:14;98492.41;;;11.02;89.61
21824;BME280;11074;48.596;9.238;2023-04-16T12:15:49;98500.69;;;11.01;89.41
21824;BME280;11074;48.596;9.238;2023-04-16T12:18:21;98501.00;;;11.04;90.59
21824;BME280;11074;48.596;9.238;2023-04-16T12:20:48;98494.19;;;10.96;90.30
21824;BME280;11074;48.596;9.238;2023-04-16T12:23:31;98503.09;;;11.02;90.04
21824;BME280;11074;48.596;9.238;2023-04-16T12:25:57;98504.47;;;11.05;89.84
21824;BME280;11074;48.596;9.238;2023-04-16T12:28:32;98504.47;;;11.05;90.82
21824;BME280;11074;48.596;9.238;2023-04-16T12:31:00;98507.66;;;11.02;91.92
21824;BME280;11074;48.596;9.238;2023-04-16T12:33:26;98509.78;;;10.83;91.55
21824;BME280;11074;48.596;9.238;2023-04-16T12:35:52;98507.69;;;10.85;92.07
21824;BME280;11074;48.596;9.238;2023-04-16T12:38:17;98503.28;;;10.95;90.92
21824;BME280;11074;48.596;9.238;2023-04-16T12:40:45;98494.72;;;10.93;91.27
21824;BME280;11074;48.596;9.238;2023-04-16T12:43:11;98499.78;;;10.95;92.51
21824;BME280;11074;48.596;9.238;2023-04-16T12:45:38;98503.91;;;11.03;91.83
21824;BME280;11074;48.596;9.238;2023-04-16T12:48:04;98504.56;;;11.10;92.97
21824;BME280;11074;48.596;9.238;2023-04-16T12:50:31;98502.75;;;11.15;92.79
21824;BME280;11074;48.596;9.238;2023-04-16T12:52:58;98509.31;;;11.08;92.16
21824;BME280;11074;48.596;9.238;2023-04-16T12:55:24;98505.41;;;11.15;91.96
21824;BME280;11074;48.596;9.238;2023-04-16T12:57:51;98505.34;;;11.10;92.02
21824;BME280;11074;48.596;9.238;2023-04-16T13:00:20;98503.41;;;11.06;92.00
21824;BME280;11074;48.596;9.238;2023-04-16T13:02:46;98500.75;;;11.06;91.58
21824;BME280;11074;48.596;9.238;2023-04-16T13:05:12;98498.75;;;11.18;91.44
21824;BME280;11074;48.596;9.238;2023-04-16T13:07:41;98499.84;;;11.17;91.94
21824;BME280;11074;48.596;9.238;2023-04-16T13:10:08;98498.31;;;11.26;92.64
21824;BME280;11074;48.596;9.238;2023-04-16T13:12:33;98500.72;;;11.22;91.78